createdAt,value
2022-08-05T00:01:27.887Z,5.13
2022-08-05T00:06:05.196Z,4.87
2022-08-05T00:09:52.363Z,5.10
2022-08-05T00:13:56.409Z,5.03
2022-08-05T00:17:58.177Z,5.82
2022-08-05T00:22:04.538Z,5.35
2022-08-05T00:26:06.707Z,5.28
2022-08-05T00:30:11.413Z,5.35
2022-08-05T00:34:56.730Z,5.43
2022-08-05T00:38:35.164Z,5.20
2022-08-05T00:42:38.040Z,5.10
2022-08-05T00:46:43.452Z,4.85
2022-08-05T00:50:47.585Z,5.22
2022-08-05T00:54:49.596Z,4.80
2022-08-05T00:58:51.360Z,4.90
2022-08-05T01:02:56.370Z,5.57
2022-08-05T01:06:58.354Z,5.20
2022-08-05T01:11:14.187Z,5.60
2022-08-05T01:15:35.397Z,5.18
2022-08-05T01:20:01.357Z,4.87
2022-08-05T01:24:46.678Z,5.60
2022-08-05T01:29:04.330Z,5.72
2022-08-05T01:33:08.802Z,5.50
2022-08-05T01:37:38.037Z,5.80
2022-08-05T01:41:46.353Z,5.30
2022-08-05T01:45:56.603Z,5.60
2022-08-05T01:50:01.552Z,5.30
2022-08-05T01:54:06.070Z,5.50
2022-08-05T01:58:15.798Z,5.60
2022-08-05T02:02:18.086Z,5.75
2022-08-05T02:06:37.636Z,5.70
2022-08-05T02:10:51.419Z,6.33
2022-08-05T02:15:19.697Z,5.87
2022-08-05T02:19:34.188Z,5.40
2022-08-05T02:23:38.737Z,5.47
2022-08-05T02:27:58.134Z,5.97
2022-08-05T02:32:04.784Z,5.70
2022-08-05T02:36:13.583Z,5.30
2022-08-05T02:40:17.532Z,5.80
2022-08-05T02:44:20.093Z,5.97
2022-08-05T02:48:29.129Z,5.60
2022-08-05T02:52:31.668Z,5.47
2022-08-05T02:56:36.406Z,5.50
2022-08-05T03:00:38.242Z,5.47
2022-08-05T03:04:53.291Z,5.20
2022-08-05T03:09:02.059Z,5.87
2022-08-05T03:13:17.868Z,5.93
2022-08-05T03:17:26.439Z,5.60
2022-08-05T03:21:41.430Z,5.57
2022-08-05T03:26:04.308Z,5.80
2022-08-05T03:30:12.658Z,5.37
2022-08-05T03:34:14.404Z,5.27
2022-08-05T03:38:16.215Z,5.40
2022-08-05T03:42:27.038Z,5.90
2022-08-05T03:46:32.627Z,5.97
2022-08-05T03:52:38.611Z,6.20
2022-08-05T03:56:04.296Z,6.15
2022-08-05T04:00:11.293Z,6.50
2022-08-05T04:04:16.868Z,6.15
2022-08-05T04:08:34.841Z,5.85
2022-08-05T04:16:39.454Z,5.55
2022-08-05T04:20:41.499Z,6.28
2022-08-05T04:24:52.573Z,6.05
2022-08-05T04:28:55.514Z,6.00
2022-08-05T04:32:59.961Z,5.63
2022-08-05T04:37:03.760Z,5.90
2022-08-05T04:41:09.565Z,5.75
2022-08-05T04:45:14.131Z,5.95
2022-08-05T04:49:38.596Z,6.03
2022-08-05T04:53:49.537Z,4.75
2022-08-05T04:57:51.654Z,5.13
2022-08-05T05:02:07.570Z,4.97
2022-08-05T05:06:39.800Z,5.43
2022-08-05T05:10:47.365Z,4.72
2022-08-05T05:14:58.360Z,5.32
2022-08-05T05:19:18.712Z,5.35
2022-08-05T05:23:21.528Z,5.05
2022-08-05T05:27:23.530Z,5.35
2022-08-05T05:31:25.503Z,4.80
2022-08-05T05:35:38.061Z,4.82
2022-08-05T05:39:42.443Z,5.05
2022-08-05T05:43:58.051Z,5.30
2022-08-05T05:48:06.141Z,5.18
2022-08-05T05:52:09.008Z,6.57
2022-08-05T05:56:10.788Z,5.10
2022-08-05T06:00:18.468Z,5.50
2022-08-05T06:04:20.419Z,5.45
2022-08-05T06:08:32.745Z,5.32
2022-08-05T06:12:36.158Z,5.53
2022-08-05T06:16:43.971Z,5.15
2022-08-05T06:20:54.299Z,5.32
2022-08-05T06:24:56.267Z,5.50
2022-08-05T06:28:58.003Z,5.20
2022-08-05T06:33:09.851Z,4.97
2022-08-05T06:37:12.689Z,5.03
2022-08-05T06:41:14.568Z,4.55
2022-08-05T06:45:20.712Z,3.95
2022-08-05T06:50:00.776Z,3.45
2022-08-05T06:53:53.572Z,3.70
2022-08-05T06:57:57.521Z,3.83
2022-08-05T07:02:13.319Z,3.60
2022-08-05T07:06:17.455Z,4.15
2022-08-05T07:10:23.715Z,3.92
2022-08-05T07:14:54.032Z,4.45
2022-08-05T07:18:55.909Z,4.75
2022-08-05T07:22:57.778Z,4.30
2022-08-05T07:26:59.701Z,4.45
2022-08-05T07:31:08.734Z,4.90
2022-08-05T07:36:02.938Z,5.07
2022-08-05T07:40:04.716Z,5.32
2022-08-05T07:43:58.254Z,5.22
2022-08-05T07:48:00.750Z,5.32
2022-08-05T07:52:06.539Z,5.43
2022-08-05T07:57:00.759Z,5.07
2022-08-05T08:00:30.088Z,5.40
2022-08-05T08:04:38.048Z,4.90
2022-08-05T08:08:40.173Z,5.13
2022-08-05T08:12:49.396Z,5.20
2022-08-05T08:16:53.645Z,5.32
2022-08-05T08:21:02.265Z,4.95
2022-08-05T08:25:16.402Z,4.75
2022-08-05T08:29:45.215Z,4.63
2022-08-05T08:33:41.418Z,5.03
2022-08-05T08:37:45.098Z,4.90
2022-08-05T08:41:59.911Z,4.95
2022-08-05T08:46:05.217Z,5.38
2022-08-05T08:50:30.651Z,4.80
2022-08-05T08:54:30.606Z,5.18
2022-08-05T08:58:43.332Z,4.50
2022-08-05T09:02:51.621Z,5.18
2022-08-05T09:06:53.365Z,4.60
2022-08-05T09:10:56.016Z,4.95
2022-08-05T09:15:06.187Z,4.90
2022-08-05T09:19:09.092Z,4.82
2022-08-05T09:23:21.670Z,4.88
2022-08-05T09:28:05.466Z,4.72
2022-08-05T09:32:43.021Z,4.97
2022-08-05T09:36:55.872Z,5.45
2022-08-05T09:41:09.936Z,4.75
2022-08-05T09:45:17.719Z,5.53
2022-08-05T09:49:54.465Z,5.05
2022-08-05T09:53:59.414Z,6.22
2022-08-05T09:58:14.160Z,5.20
2022-08-05T10:02:30.734Z,5.47
2022-08-05T10:06:36.458Z,5.45
2022-08-05T10:10:53.897Z,5.20
2022-08-05T10:15:16.416Z,5.35
2022-08-05T10:19:23.845Z,5.90
2022-08-05T10:23:59.074Z,5.45
2022-08-05T10:28:12.750Z,5.78
2022-08-05T10:32:54.587Z,5.38
2022-08-05T10:36:42.610Z,5.80
2022-08-05T10:40:52.560Z,5.65
2022-08-05T10:45:00.131Z,5.90
2022-08-05T10:49:08.044Z,5.85
2022-08-05T10:53:33.795Z,6.30
2022-08-05T10:57:44.920Z,6.00
2022-08-05T11:01:55.566Z,5.88
2022-08-05T11:06:15.493Z,5.70
2022-08-05T11:10:26.356Z,5.70
2022-08-05T11:20:17.660Z,5.55
2022-08-05T11:24:03.912Z,5.68
2022-08-05T11:28:17.098Z,5.28
2022-08-05T11:32:29.578Z,6.25
2022-08-05T11:36:52.829Z,5.10
2022-08-05T11:41:36.839Z,5.30
2022-08-05T11:46:15.480Z,5.80
2022-08-05T11:49:56.229Z,5.65
2022-08-05T11:54:02.486Z,5.55
2022-08-05T11:58:10.188Z,5.20
2022-08-05T12:02:30.773Z,5.78
2022-08-05T12:06:34.907Z,5.53
2022-08-05T12:10:43.771Z,5.22
2022-08-05T12:14:47.956Z,5.45
2022-08-05T12:18:53.058Z,4.90
2022-08-05T12:23:09.952Z,4.85
2022-08-05T12:27:32.851Z,5.07
2022-08-05T12:31:47.640Z,4.88
2022-08-05T12:35:52.048Z,4.43
2022-08-05T12:39:56.173Z,4.30
2022-08-05T12:44:11.707Z,4.30
2022-08-05T12:48:27.155Z,4.90
2022-08-05T12:52:37.736Z,3.92
2022-08-05T12:56:51.031Z,4.15
2022-08-05T13:02:01.159Z,3.90
2022-08-05T13:05:15.081Z,3.80
2022-08-05T13:09:28.179Z,4.07
2022-08-05T13:14:04.570Z,3.80
2022-08-05T13:17:55.724Z,4.05
2022-08-05T13:22:01.191Z,4.13
2022-08-05T13:26:05.762Z,3.75
2022-08-05T13:30:34.983Z,3.88
2022-08-05T13:34:34.537Z,3.60
2022-08-05T13:38:42.829Z,3.53
2022-08-05T13:42:45.228Z,3.85
2022-08-05T13:47:08.287Z,3.78
2022-08-05T13:51:11.453Z,3.60
2022-08-05T13:55:41.635Z,3.13
2022-08-05T13:59:38.188Z,3.40
2022-08-05T14:04:18.061Z,3.30
2022-08-05T14:08:28.196Z,3.00
2022-08-05T14:12:34.498Z,3.88
2022-08-05T14:16:37.733Z,3.30
2022-08-05T14:20:48.680Z,3.50
2022-08-05T14:24:50.722Z,3.95
2022-08-05T14:28:52.870Z,3.58
2022-08-05T14:32:54.633Z,3.25
2022-08-05T14:36:58.447Z,3.40
2022-08-05T14:41:05.579Z,3.10
2022-08-05T14:45:09.189Z,3.40
2022-08-05T14:49:10.983Z,3.35
2022-08-05T14:53:14.346Z,3.22
2022-08-05T14:57:16.166Z,3.33
2022-08-05T15:01:24.172Z,2.95
2022-08-05T15:06:08.078Z,3.15
2022-08-05T15:10:03.491Z,2.88
2022-08-05T15:14:05.979Z,2.90
2022-08-05T15:18:08.273Z,3.08
2022-08-05T15:22:10.291Z,3.38
2022-08-05T15:26:12.068Z,3.15
2022-08-05T15:30:14.470Z,3.10
2022-08-05T15:34:32.893Z,3.20
2022-08-05T15:38:40.884Z,3.20
2022-08-05T15:42:53.575Z,3.28
2022-08-05T15:47:01.061Z,3.35
2022-08-05T15:51:05.812Z,3.20
2022-08-05T15:55:16.058Z,3.38
2022-08-05T15:59:21.862Z,3.33
2022-08-05T16:03:24.282Z,3.25
2022-08-05T16:07:26.158Z,3.50
2022-08-05T16:11:42.482Z,3.00
2022-08-05T16:15:45.120Z,3.50
2022-08-05T16:20:05.349Z,3.05
2022-08-05T16:24:39.589Z,3.30
2022-08-05T16:28:38.288Z,3.75
2022-08-05T16:32:43.285Z,3.75
2022-08-05T16:36:46.465Z,3.58
2022-08-05T16:40:55.391Z,3.85
2022-08-05T16:45:01.738Z,3.70
2022-08-05T16:49:09.068Z,3.83
2022-08-05T16:53:12.264Z,3.78
2022-08-05T16:57:22.185Z,3.70
2022-08-05T17:01:52.826Z,4.05
2022-08-05T17:05:53.854Z,3.80
2022-08-05T17:09:58.002Z,3.95
2022-08-05T17:14:06.052Z,4.07
2022-08-05T17:18:08.307Z,3.63
2022-08-05T17:22:24.509Z,3.42
2022-08-05T17:26:27.554Z,3.22
2022-08-05T17:30:30.239Z,3.60
2022-08-05T17:34:35.078Z,2.90
2022-08-05T17:38:43.018Z,2.53
2022-08-05T17:42:51.042Z,2.85
2022-08-05T17:46:55.641Z,3.17
2022-08-05T17:50:57.433Z,3.45
2022-08-05T17:55:00.999Z,3.72
2022-08-05T17:59:05.398Z,3.70
2022-08-05T18:03:55.953Z,3.00
2022-08-05T18:07:41.241Z,3.42
2022-08-05T18:11:44.168Z,3.00
2022-08-05T18:15:46.270Z,3.10
2022-08-05T18:19:51.427Z,3.72
2022-08-05T18:23:56.599Z,3.75
2022-08-05T18:27:59.704Z,4.50
2022-08-05T18:32:12.974Z,5.03
2022-08-05T18:36:19.266Z,5.13
2022-08-05T18:40:33.884Z,4.82
2022-08-05T18:44:49.425Z,5.57
2022-08-05T18:49:17.639Z,6.07
2022-08-05T18:53:24.691Z,6.40
2022-08-05T18:57:28.606Z,5.85
2022-08-05T19:01:57.105Z,6.82
2022-08-05T19:06:12.057Z,6.40
2022-08-05T19:10:26.518Z,6.38
2022-08-05T19:14:37.882Z,6.90
2022-08-05T19:18:58.326Z,7.18
2022-08-05T19:23:00.145Z,7.75
2022-08-05T19:27:09.090Z,6.85
2022-08-05T19:31:19.428Z,6.43
2022-08-05T19:35:24.717Z,6.47
2022-08-05T19:39:28.331Z,5.97
2022-08-05T19:44:04.070Z,5.60
2022-08-05T19:47:52.219Z,5.25
2022-08-05T19:52:08.996Z,4.50
2022-08-05T19:56:32.400Z,4.00
2022-08-05T20:00:34.537Z,4.03
2022-08-05T20:04:43.287Z,3.90
2022-08-05T20:08:49.782Z,4.20
2022-08-05T20:13:00.491Z,3.20
2022-08-05T20:17:23.632Z,3.65
2022-08-05T20:21:25.922Z,2.80
2022-08-05T20:25:28.922Z,2.20
2022-08-05T20:29:41.971Z,2.00
2022-08-05T20:33:59.976Z,1.73
2022-08-05T20:38:05.611Z,2.00
2022-08-05T20:42:11.729Z,1.50
2022-08-05T20:46:18.226Z,1.47
2022-08-05T20:50:20.629Z,1.37
2022-08-05T20:54:58.903Z,1.10
2022-08-05T20:58:53.398Z,1.17
2022-08-05T21:02:57.843Z,1.10
2022-08-05T21:07:00.043Z,1.20
2022-08-05T21:11:09.068Z,1.20
2022-08-05T21:15:15.823Z,1.00
2022-08-05T21:19:17.771Z,1.20
2022-08-05T21:23:22.676Z,1.33
2022-08-05T21:27:27.495Z,1.10
2022-08-05T21:31:41.501Z,1.03
2022-08-05T21:35:58.317Z,1.27
2022-08-05T21:40:01.114Z,1.20
2022-08-05T21:44:04.227Z,1.20
2022-08-05T21:48:08.112Z,1.20
2022-08-05T21:52:27.748Z,1.27
2022-08-05T21:56:30.837Z,1.30
2022-08-05T22:00:33.179Z,1.23
2022-08-05T22:04:35.679Z,1.30
2022-08-05T22:08:37.492Z,1.30
2022-08-05T22:12:50.591Z,1.20
2022-08-05T22:16:57.947Z,1.40
2022-08-05T22:21:04.082Z,1.40
2022-08-05T22:25:31.202Z,1.30
2022-08-05T22:29:48.267Z,1.30
2022-08-05T22:34:00.622Z,1.40
2022-08-05T22:38:04.083Z,1.30
2022-08-05T22:42:12.455Z,1.20
2022-08-05T22:46:20.960Z,1.33
2022-08-05T22:50:26.671Z,1.30
2022-08-05T22:54:32.245Z,1.40
2022-08-05T22:58:34.468Z,1.73
2022-08-05T23:02:46.358Z,1.50
2022-08-05T23:06:48.988Z,1.80
2022-08-05T23:10:54.843Z,1.80
2022-08-05T23:14:58.077Z,1.77
2022-08-05T23:18:59.842Z,1.60
2022-08-05T23:23:03.498Z,1.80
2022-08-05T23:27:07.616Z,2.60
2022-08-05T23:31:16.999Z,1.87
2022-08-05T23:35:19.700Z,1.80
2022-08-05T23:39:32.237Z,2.23
2022-08-05T23:44:05.411Z,2.00
2022-08-05T23:48:06.938Z,1.97
2022-08-05T23:52:27.574Z,1.80
2022-08-05T23:56:30.072Z,1.80
